createdAt,value
2022-08-29T17:17:43.148Z,2.33
2022-08-29T17:20:13.709Z,3.33
2022-08-29T17:22:41.243Z,3.00
2022-08-29T17:25:14.459Z,5.00
2022-08-29T17:27:55.440Z,5.67
2022-08-29T17:30:32.097Z,4.67
2022-08-29T17:32:59.298Z,5.00
2022-08-29T17:35:27.714Z,4.67
2022-08-29T17:37:55.233Z,7.00
2022-08-29T17:40:22.644Z,5.67
2022-08-29T17:42:50.264Z,5.00
2022-08-29T17:45:17.489Z,5.00
2022-08-29T17:47:46.974Z,5.00
2022-08-29T17:50:14.425Z,6.00
2022-08-29T17:52:41.844Z,5.67
2022-08-29T17:55:16.765Z,6.00
2022-08-29T17:57:43.867Z,5.67
2022-08-29T18:00:12.660Z,5.00
2022-08-29T18:02:40.965Z,5.67
2022-08-29T18:05:13.824Z,5.00
2022-08-29T18:07:41.417Z,5.00
2022-08-29T18:10:18.476Z,5.00
2022-08-29T18:13:00.276Z,5.00
2022-08-29T18:15:48.256Z,5.33
2022-08-29T18:18:18.735Z,6.00
2022-08-29T18:20:45.976Z,5.33
2022-08-29T18:23:13.017Z,5.33
2022-08-29T18:25:40.222Z,5.33
2022-08-29T18:28:08.580Z,6.00
2022-08-29T18:30:35.935Z,4.33
2022-08-29T18:33:14.379Z,5.00
2022-08-29T18:36:34.961Z,6.00
2022-08-29T18:39:21.691Z,4.67
2022-08-29T18:45:25.070Z,7.00
2022-08-29T18:48:29.502Z,5.00
2022-08-29T18:52:11.053Z,11.00
2022-08-29T18:58:44.553Z,25.75
2022-08-29T19:01:14.864Z,28.00
2022-08-29T19:06:31.738Z,30.25
2022-08-29T19:09:57.622Z,36.75
2022-08-29T19:12:26.619Z,41.00
2022-08-29T19:14:53.807Z,46.75
2022-08-29T19:17:23.921Z,44.75
2022-08-29T19:20:13.781Z,47.75
2022-08-29T19:22:40.997Z,48.50
2022-08-29T19:25:09.045Z,46.75
2022-08-29T19:27:45.131Z,48.00
2022-08-29T19:30:16.768Z,47.50
2022-08-29T19:32:45.673Z,44.50
2022-08-29T19:35:13.300Z,44.50
2022-08-29T19:37:43.093Z,45.25
2022-08-29T19:40:12.940Z,45.25
2022-08-29T19:42:45.578Z,44.50
2022-08-29T19:45:18.651Z,40.25
2022-08-29T19:47:47.349Z,45.50
2022-08-29T19:50:16.289Z,43.50
2022-08-29T19:52:43.841Z,44.75
2022-08-29T19:55:12.791Z,41.00
2022-08-29T19:57:42.531Z,43.00
2022-08-29T20:00:16.045Z,42.25
2022-08-29T20:02:45.915Z,44.00
2022-08-29T20:05:21.927Z,44.50
2022-08-29T20:07:49.889Z,40.50
2022-08-29T20:10:21.779Z,40.50
2022-08-29T20:12:52.252Z,41.00
2022-08-29T20:16:55.341Z,37.75
